createdAt,value
2023-03-21T00:00:56.332Z,75.84
2023-03-21T00:03:26.201Z,76.04
2023-03-21T00:05:54.711Z,75.93
2023-03-21T00:08:26.289Z,76.26
2023-03-21T00:10:57.726Z,76.23
2023-03-21T00:13:26.917Z,76.32
2023-03-21T00:16:05.087Z,76.44
2023-03-21T00:18:42.552Z,76.25
2023-03-21T00:21:44.015Z,76.17
2023-03-21T00:24:04.630Z,76.34
2023-03-21T00:26:34.713Z,76.23
2023-03-21T00:29:04.010Z,76.08
2023-03-21T00:31:36.197Z,76.31
2023-03-21T00:34:06.081Z,76.32
2023-03-21T00:36:34.668Z,76.07
2023-03-21T00:39:06.452Z,76.23
2023-03-21T00:41:42.633Z,76.28
2023-03-21T00:44:14.025Z,76.33
2023-03-21T00:46:49.352Z,76.24
2023-03-21T00:49:22.661Z,76.46
2023-03-21T00:51:51.440Z,76.51
2023-03-21T00:54:20.921Z,76.52
2023-03-21T00:56:49.223Z,76.18
2023-03-21T00:59:17.961Z,76.18
2023-03-21T01:01:54.180Z,76.39
2023-03-21T01:04:26.940Z,76.51
2023-03-21T01:06:55.353Z,76.64
2023-03-21T01:09:24.481Z,76.53
2023-03-21T01:11:53.417Z,76.53
2023-03-21T01:14:23.688Z,76.50
2023-03-21T01:16:53.169Z,76.70
2023-03-21T01:19:37.947Z,76.91
2023-03-21T01:22:12.615Z,76.97
2023-03-21T01:24:52.468Z,77.15
2023-03-21T01:27:23.708Z,76.94
2023-03-21T01:29:53.039Z,77.13
2023-03-21T01:32:21.897Z,77.41
2023-03-21T01:34:50.413Z,77.55
2023-03-21T01:37:20.116Z,77.58
2023-03-21T01:39:50.448Z,77.80
2023-03-21T01:42:18.595Z,77.89
2023-03-21T01:44:58.540Z,77.72
2023-03-21T01:47:35.681Z,77.69
2023-03-21T01:50:08.295Z,77.87
2023-03-21T01:52:55.208Z,78.08
2023-03-21T01:55:32.397Z,78.14
2023-03-21T01:58:22.287Z,78.07
2023-03-21T02:01:06.501Z,78.35
2023-03-21T02:03:50.685Z,77.84
2023-03-21T02:06:51.873Z,77.92
2023-03-21T02:09:33.699Z,77.91
2023-03-21T02:12:07.375Z,77.88
2023-03-21T02:14:37.825Z,77.97
2023-03-21T02:17:20.746Z,77.96
2023-03-21T02:20:36.354Z,78.01
2023-03-21T02:23:16.988Z,77.78
2023-03-21T02:26:08.732Z,77.26
2023-03-21T02:28:58.207Z,77.35
2023-03-21T02:31:32.641Z,77.47
2023-03-21T02:34:16.319Z,77.44
2023-03-21T02:37:07.786Z,77.41
2023-03-21T02:39:45.322Z,77.79
2023-03-21T02:42:32.174Z,77.60
2023-03-21T02:45:08.316Z,77.62
2023-03-21T02:47:42.966Z,77.94
2023-03-21T02:50:46.311Z,77.85
2023-03-21T02:53:18.367Z,78.11
2023-03-21T02:55:47.607Z,78.54
2023-03-21T02:58:18.389Z,78.37
2023-03-21T03:00:50.502Z,78.21
2023-03-21T03:03:34.598Z,78.60
2023-03-21T03:06:28.891Z,79.02
2023-03-21T03:09:04.333Z,79.14
2023-03-21T03:11:35.881Z,79.53
2023-03-21T03:14:38.460Z,79.74
2023-03-21T03:17:08.208Z,79.52
2023-03-21T03:19:55.075Z,79.53
2023-03-21T03:22:25.622Z,79.87
2023-03-21T03:25:19.828Z,80.18
2023-03-21T03:27:53.345Z,80.78
2023-03-21T03:30:23.803Z,80.78
2023-03-21T03:32:56.498Z,80.85
2023-03-21T03:35:24.942Z,80.91
2023-03-21T03:37:57.723Z,81.32
2023-03-21T03:40:31.376Z,81.69
2023-03-21T03:43:10.828Z,81.67
2023-03-21T03:46:13.895Z,81.80
2023-03-21T03:48:49.128Z,81.59
2023-03-21T03:51:38.300Z,81.52
2023-03-21T03:54:12.454Z,81.49
2023-03-21T03:56:42.794Z,81.54
2023-03-21T03:59:10.898Z,81.59
2023-03-21T04:02:01.865Z,81.62
2023-03-21T04:04:31.885Z,81.36
2023-03-21T04:07:03.530Z,81.28
2023-03-21T04:09:43.521Z,81.51
2023-03-21T04:12:15.551Z,81.67
2023-03-21T04:14:56.985Z,81.99
2023-03-21T04:17:35.022Z,81.80
2023-03-21T04:20:12.070Z,82.11
2023-03-21T04:22:43.194Z,82.24
2023-03-21T04:25:18.961Z,82.25
2023-03-21T04:27:56.250Z,82.63
2023-03-21T04:31:02.508Z,82.92
2023-03-21T04:33:41.939Z,82.81
2023-03-21T04:36:26.049Z,82.74
2023-03-21T04:39:01.102Z,82.72
2023-03-21T04:41:29.252Z,82.88
2023-03-21T04:44:03.593Z,82.87
2023-03-21T04:46:33.249Z,82.54
2023-03-21T04:49:01.842Z,82.36
2023-03-21T04:51:30.431Z,82.39
2023-03-21T04:53:58.847Z,82.48
2023-03-21T04:56:32.654Z,82.39
2023-03-21T04:59:08.999Z,82.27
2023-03-21T05:01:37.164Z,82.10
2023-03-21T05:04:05.754Z,82.12
2023-03-21T05:06:35.975Z,82.14
2023-03-21T05:09:05.662Z,81.90
2023-03-21T05:11:38.607Z,81.98
2023-03-21T05:14:08.088Z,81.78
2023-03-21T05:16:36.519Z,81.47
2023-03-21T05:19:05.221Z,81.14
2023-03-21T05:21:43.607Z,81.19
2023-03-21T05:24:20.609Z,81.18
2023-03-21T05:26:52.607Z,80.83
2023-03-21T05:29:24.369Z,80.92
2023-03-21T05:32:00.248Z,80.66
2023-03-21T05:34:28.610Z,80.08
2023-03-21T05:36:56.739Z,80.07
2023-03-21T05:39:27.476Z,79.95
2023-03-21T05:42:01.794Z,79.72
2023-03-21T05:44:30.938Z,79.96
2023-03-21T05:47:00.672Z,79.31
2023-03-21T05:49:38.074Z,79.39
2023-03-21T05:52:06.807Z,79.33
2023-03-21T05:54:38.674Z,79.34
2023-03-21T05:57:07.069Z,79.20
2023-03-21T06:00:05.189Z,79.05
2023-03-21T06:02:44.630Z,78.84
2023-03-21T06:05:31.949Z,78.49
2023-03-21T06:08:01.009Z,77.98
2023-03-21T06:10:33.569Z,77.93
2023-03-21T06:13:03.680Z,77.79
2023-03-21T06:15:36.810Z,77.39
2023-03-21T06:18:10.469Z,77.32
2023-03-21T06:20:39.789Z,77.01
2023-03-21T06:23:12.497Z,76.71
2023-03-21T06:25:41.270Z,76.64
2023-03-21T06:28:09.812Z,76.40
2023-03-21T06:30:47.101Z,75.57
2023-03-21T06:33:20.956Z,75.14
2023-03-21T06:35:56.504Z,74.85
2023-03-21T06:38:25.661Z,74.27
2023-03-21T06:40:54.612Z,73.82
2023-03-21T06:43:23.943Z,73.72
2023-03-21T06:45:52.159Z,73.74
2023-03-21T06:48:20.350Z,73.82
2023-03-21T06:50:54.851Z,73.52
2023-03-21T06:53:27.483Z,73.58
2023-03-21T06:56:18.573Z,73.33
2023-03-21T06:58:48.099Z,72.87
2023-03-21T07:01:37.382Z,72.80
2023-03-21T07:04:07.616Z,72.79
2023-03-21T07:06:37.322Z,72.22
2023-03-21T07:09:13.409Z,71.84
2023-03-21T07:11:42.724Z,71.87
2023-03-21T07:14:11.638Z,71.66
2023-03-21T07:16:44.838Z,71.49
2023-03-21T07:19:16.012Z,71.30
2023-03-21T07:21:44.282Z,71.33
2023-03-21T07:24:16.156Z,70.56
2023-03-21T07:26:44.466Z,70.30
2023-03-21T07:29:13.689Z,70.00
2023-03-21T07:31:47.441Z,69.48
2023-03-21T07:34:17.064Z,68.90
2023-03-21T07:36:45.362Z,69.07
2023-03-21T07:39:17.809Z,68.89
2023-03-21T07:41:46.258Z,68.92
2023-03-21T07:44:25.318Z,68.77
2023-03-21T07:47:01.726Z,68.14
2023-03-21T07:49:30.193Z,67.88
2023-03-21T07:52:00.141Z,67.95
2023-03-21T07:54:29.359Z,67.42
2023-03-21T07:56:57.413Z,66.88
2023-03-21T07:59:26.440Z,67.15
2023-03-21T08:01:54.764Z,66.46
2023-03-21T08:04:22.853Z,66.23
2023-03-21T08:06:51.869Z,66.00
2023-03-21T08:09:20.194Z,65.58
2023-03-21T08:11:54.357Z,65.02
2023-03-21T08:14:22.626Z,64.61
2023-03-21T08:16:51.013Z,64.29
2023-03-21T08:19:23.198Z,64.04
2023-03-21T08:21:53.768Z,63.74
2023-03-21T08:24:22.121Z,62.60
2023-03-21T08:26:53.669Z,61.97
2023-03-21T08:29:25.238Z,61.60
2023-03-21T08:31:53.402Z,60.93
2023-03-21T08:34:23.988Z,59.37
2023-03-21T08:36:51.980Z,59.14
2023-03-21T08:39:21.942Z,58.93
2023-03-21T08:41:50.082Z,58.78
2023-03-21T08:44:18.127Z,58.31
2023-03-21T08:46:46.177Z,57.95
2023-03-21T08:49:14.253Z,56.82
2023-03-21T08:51:45.792Z,56.48
2023-03-21T08:54:31.722Z,56.04
2023-03-21T08:57:00.468Z,55.75
2023-03-21T08:59:28.554Z,55.26
2023-03-21T09:01:56.769Z,55.31
2023-03-21T09:04:26.420Z,55.09
2023-03-21T09:06:56.481Z,55.22
2023-03-21T09:09:24.785Z,55.06
2023-03-21T09:11:52.802Z,54.67
2023-03-21T09:14:23.875Z,54.17
2023-03-21T09:16:57.991Z,53.65
2023-03-21T09:19:26.350Z,52.54
2023-03-21T09:21:57.942Z,51.25
2023-03-21T09:24:26.608Z,50.22
2023-03-21T09:26:56.633Z,48.60
2023-03-21T09:29:25.044Z,48.14
2023-03-21T09:31:53.966Z,48.06
2023-03-21T09:34:22.673Z,46.88
2023-03-21T09:36:52.020Z,46.10
2023-03-21T09:39:26.606Z,45.75
2023-03-21T09:42:17.978Z,44.71
2023-03-21T09:44:59.269Z,43.66
2023-03-21T09:47:37.808Z,43.53
2023-03-21T09:50:17.662Z,43.86
2023-03-21T09:52:58.870Z,43.80
2023-03-21T09:55:35.488Z,43.65
2023-03-21T09:58:21.678Z,42.97
2023-03-21T10:00:55.811Z,41.86
2023-03-21T10:03:35.213Z,41.61
2023-03-21T10:06:12.371Z,41.48
2023-03-21T10:08:41.516Z,40.49
2023-03-21T10:11:24.672Z,40.09
2023-03-21T10:13:55.802Z,39.80
2023-03-21T10:17:33.564Z,39.70
2023-03-21T10:20:12.257Z,38.77
2023-03-21T10:22:46.190Z,39.27
2023-03-21T10:25:47.338Z,38.71
2023-03-21T10:28:21.576Z,38.57
2023-03-21T10:30:57.015Z,38.22
2023-03-21T10:33:27.466Z,37.67
2023-03-21T10:35:59.031Z,37.52
2023-03-21T10:38:27.417Z,36.20
2023-03-21T10:40:56.510Z,35.90
2023-03-21T10:43:27.609Z,35.86
2023-03-21T10:45:58.422Z,36.21
2023-03-21T10:48:26.767Z,36.45
2023-03-21T10:50:55.064Z,35.57
2023-03-21T10:53:27.980Z,35.26
2023-03-21T10:56:02.073Z,35.65
2023-03-21T10:58:39.211Z,35.93
2023-03-21T11:01:10.832Z,35.68
2023-03-21T11:03:44.569Z,35.84
2023-03-21T11:06:36.814Z,36.18
2023-03-21T11:09:08.554Z,36.23
2023-03-21T11:11:52.533Z,36.03
2023-03-21T11:14:34.388Z,36.07
2023-03-21T11:17:02.703Z,35.53
2023-03-21T11:19:32.943Z,35.43
2023-03-21T11:22:11.132Z,35.75
2023-03-21T11:24:39.134Z,35.74
2023-03-21T11:27:07.843Z,36.06
2023-03-21T11:29:39.049Z,36.32
2023-03-21T11:32:36.173Z,36.05
2023-03-21T11:35:21.939Z,35.83
2023-03-21T11:37:57.907Z,36.06
2023-03-21T11:40:27.415Z,35.99
2023-03-21T11:42:59.239Z,35.46
2023-03-21T11:45:31.121Z,34.18
2023-03-21T11:48:01.090Z,33.10
2023-03-21T11:50:34.067Z,33.50
2023-03-21T11:53:29.974Z,33.69
2023-03-21T11:56:16.730Z,33.51
2023-03-21T11:59:07.095Z,33.55
2023-03-21T12:01:37.269Z,33.92
2023-03-21T12:04:27.336Z,34.09
2023-03-21T12:07:33.414Z,34.39
2023-03-21T12:10:11.393Z,34.75
2023-03-21T12:13:01.372Z,34.45
2023-03-21T12:15:35.401Z,34.14
2023-03-21T12:18:06.513Z,33.33
2023-03-21T12:20:37.857Z,32.81
2023-03-21T12:23:38.278Z,33.17
2023-03-21T12:26:21.100Z,33.77
2023-03-21T12:29:12.454Z,34.38
2023-03-21T12:32:18.186Z,35.24
2023-03-21T12:35:16.778Z,36.07
2023-03-21T12:38:10.475Z,36.45
2023-03-21T12:40:49.709Z,36.81
2023-03-21T12:43:41.231Z,37.52
2023-03-21T12:46:24.465Z,37.83
2023-03-21T12:49:03.272Z,38.16
2023-03-21T12:51:37.423Z,38.35
2023-03-21T12:54:08.742Z,38.73
2023-03-21T12:56:39.979Z,39.24
2023-03-21T12:59:26.384Z,39.58
2023-03-21T13:01:56.760Z,40.22
2023-03-21T13:04:41.109Z,40.44
2023-03-21T13:07:11.758Z,41.05
2023-03-21T13:09:41.005Z,41.53
2023-03-21T13:12:43.589Z,41.95
2023-03-21T13:15:27.843Z,42.08
2023-03-21T13:17:58.980Z,42.55
2023-03-21T13:20:49.610Z,42.94
2023-03-21T13:23:22.258Z,43.50
2023-03-21T13:25:52.397Z,43.95
2023-03-21T13:28:34.678Z,44.36
2023-03-21T13:31:26.254Z,44.77
2023-03-21T13:33:55.875Z,44.85
2023-03-21T13:36:26.932Z,44.92
2023-03-21T13:39:00.993Z,45.09
2023-03-21T13:41:37.276Z,45.36
2023-03-21T13:44:09.020Z,45.42
2023-03-21T13:46:53.561Z,45.43
2023-03-21T13:49:29.164Z,45.65
2023-03-21T13:51:58.648Z,45.67
2023-03-21T13:54:34.479Z,45.72
2023-03-21T13:57:14.513Z,45.63
2023-03-21T13:59:49.107Z,45.90
2023-03-21T14:02:29.384Z,45.97
2023-03-21T14:05:06.853Z,46.10
2023-03-21T14:07:42.696Z,46.23
2023-03-21T14:10:30.840Z,46.40
2023-03-21T14:12:59.056Z,46.60
2023-03-21T14:15:56.355Z,46.75
2023-03-21T14:18:41.136Z,46.91
2023-03-21T14:21:25.721Z,47.30
2023-03-21T14:23:58.125Z,47.52
2023-03-21T14:26:32.519Z,47.78
2023-03-21T14:29:05.257Z,47.57
2023-03-21T14:31:34.593Z,47.97
2023-03-21T14:34:02.867Z,48.01
2023-03-21T14:36:32.951Z,48.20
2023-03-21T14:39:12.281Z,48.35
2023-03-21T14:41:49.650Z,48.37
2023-03-21T14:44:30.275Z,48.58
2023-03-21T14:47:03.857Z,48.86
2023-03-21T14:49:36.511Z,49.08
2023-03-21T14:52:07.304Z,49.38
2023-03-21T14:54:36.604Z,49.80
2023-03-21T14:57:07.970Z,49.97
2023-03-21T14:59:38.961Z,50.05
2023-03-21T15:02:17.465Z,50.21
2023-03-21T15:04:47.285Z,50.38
2023-03-21T15:07:32.375Z,50.51
2023-03-21T15:10:04.899Z,50.77
2023-03-21T15:12:34.536Z,51.54
2023-03-21T15:15:06.005Z,53.24
2023-03-21T15:17:34.157Z,55.74
2023-03-21T15:20:10.326Z,56.84
2023-03-21T15:22:40.908Z,57.47
2023-03-21T15:25:13.393Z,58.77
2023-03-21T15:27:43.240Z,59.52
2023-03-21T15:30:28.155Z,59.93
2023-03-21T15:32:57.389Z,60.81
2023-03-21T15:35:30.790Z,61.37
2023-03-21T15:37:59.495Z,62.15
2023-03-21T15:40:30.313Z,62.50
2023-03-21T15:43:18.891Z,63.19
2023-03-21T15:45:51.494Z,63.97
2023-03-21T15:48:27.843Z,64.95
2023-03-21T15:51:06.217Z,66.38
2023-03-21T15:53:37.223Z,68.88
2023-03-21T15:56:06.203Z,70.08
2023-03-21T15:58:41.476Z,71.36
2023-03-21T16:01:20.121Z,72.45
2023-03-21T16:04:02.701Z,73.04
2023-03-21T16:06:33.717Z,74.00
2023-03-21T16:09:14.340Z,75.06
2023-03-21T16:11:48.591Z,76.09
2023-03-21T16:14:18.734Z,77.09
2023-03-21T16:16:46.786Z,78.01
2023-03-21T16:19:16.636Z,78.57
2023-03-21T16:21:44.933Z,79.65
2023-03-21T16:24:13.647Z,79.98
2023-03-21T16:26:46.271Z,80.50
2023-03-21T16:29:15.015Z,80.62
2023-03-21T16:31:43.189Z,81.30
2023-03-21T16:34:12.819Z,82.61
2023-03-21T16:36:44.326Z,83.69
2023-03-21T16:39:24.854Z,84.36
2023-03-21T16:41:53.280Z,84.37
2023-03-21T16:44:21.656Z,84.77
2023-03-21T16:46:50.133Z,84.38
2023-03-21T16:49:28.054Z,84.17
2023-03-21T16:51:59.712Z,83.99
2023-03-21T16:54:31.941Z,83.39
2023-03-21T16:57:01.429Z,83.49
2023-03-21T16:59:29.520Z,83.97
2023-03-21T17:01:58.038Z,84.26
2023-03-21T17:04:26.183Z,83.84
2023-03-21T17:06:54.582Z,83.97
2023-03-21T17:09:24.522Z,83.97
2023-03-21T17:11:52.901Z,83.95
2023-03-21T17:14:25.812Z,84.26
2023-03-21T17:16:55.391Z,85.17
2023-03-21T17:19:26.443Z,85.42
2023-03-21T17:21:55.462Z,85.49
2023-03-21T17:24:23.940Z,86.11
2023-03-21T17:26:52.734Z,86.89
2023-03-21T17:29:23.451Z,86.97
2023-03-21T17:31:51.935Z,87.30
2023-03-21T17:34:20.623Z,87.38
2023-03-21T17:36:57.290Z,87.35
2023-03-21T17:39:26.821Z,88.07
2023-03-21T17:41:56.179Z,88.08
2023-03-21T17:44:24.273Z,87.93
2023-03-21T17:46:52.653Z,87.38
2023-03-21T17:49:21.935Z,87.35
2023-03-21T17:51:50.559Z,86.85
2023-03-21T17:54:18.914Z,86.67
2023-03-21T17:56:47.579Z,85.95
2023-03-21T17:59:17.206Z,85.57
2023-03-21T18:01:47.692Z,85.58
2023-03-21T18:04:17.278Z,85.35
2023-03-21T18:06:45.708Z,85.57
2023-03-21T18:09:20.229Z,85.60
2023-03-21T18:11:50.045Z,85.67
2023-03-21T18:14:27.095Z,85.62
2023-03-21T18:16:58.160Z,85.46
2023-03-21T18:19:27.392Z,85.67
2023-03-21T18:21:56.177Z,86.38
2023-03-21T18:24:24.437Z,86.42
2023-03-21T18:26:52.543Z,86.03
2023-03-21T18:32:09.754Z,86.18
2023-03-21T18:34:40.156Z,85.97
2023-03-21T18:37:08.824Z,85.89
2023-03-21T18:39:38.068Z,86.19
2023-03-21T18:42:07.818Z,86.50
2023-03-21T18:44:45.789Z,86.64
2023-03-21T18:47:14.427Z,86.66
2023-03-21T18:50:13.132Z,86.45
2023-03-21T18:52:32.088Z,85.78
2023-03-21T18:55:01.257Z,84.74
2023-03-21T18:57:39.027Z,83.92
2023-03-21T19:00:13.179Z,83.84
2023-03-21T19:02:46.892Z,83.95
2023-03-21T19:05:17.352Z,82.74
2023-03-21T19:07:46.620Z,82.26
2023-03-21T19:10:18.647Z,81.64
2023-03-21T19:12:52.703Z,81.14
2023-03-21T19:15:21.898Z,81.17
2023-03-21T19:18:33.992Z,80.88
2023-03-21T19:20:46.093Z,80.99
2023-03-21T19:23:17.755Z,81.17
2023-03-21T19:25:47.042Z,81.59
2023-03-21T19:28:17.338Z,81.53
2023-03-21T19:30:50.033Z,81.34
2023-03-21T19:33:24.598Z,81.05
2023-03-21T19:36:10.755Z,80.97
2023-03-21T19:38:40.968Z,80.83
2023-03-21T19:41:09.109Z,80.78
2023-03-21T19:43:40.021Z,80.98
2023-03-21T19:46:09.111Z,81.08
2023-03-21T19:48:38.898Z,81.51
2023-03-21T19:51:26.942Z,81.89
2023-03-21T19:53:56.039Z,81.67
2023-03-21T19:56:27.030Z,81.49
2023-03-21T19:58:56.099Z,81.05
2023-03-21T20:01:24.939Z,80.85
2023-03-21T20:03:56.496Z,80.95
2023-03-21T20:06:26.820Z,81.09
2023-03-21T20:11:47.475Z,81.66
2023-03-21T20:14:17.126Z,81.55
2023-03-21T20:16:45.628Z,81.93
2023-03-21T20:19:16.179Z,82.13
2023-03-21T20:21:52.918Z,83.02
2023-03-21T20:24:28.397Z,83.11
2023-03-21T20:26:57.348Z,83.36
2023-03-21T20:32:14.301Z,83.80
2023-03-21T20:34:44.430Z,83.98
2023-03-21T20:37:13.846Z,83.74
2023-03-21T20:39:42.602Z,83.86
2023-03-21T20:42:10.709Z,83.48
2023-03-21T20:44:57.233Z,83.86
2023-03-21T20:47:28.154Z,84.27
2023-03-21T20:50:00.324Z,83.89
2023-03-21T20:55:18.767Z,84.43
2023-03-21T20:57:48.681Z,84.34
2023-03-21T21:00:17.868Z,84.94
2023-03-21T21:02:50.507Z,84.85
2023-03-21T21:05:35.721Z,84.20
2023-03-21T21:08:06.904Z,83.95
2023-03-21T21:10:52.415Z,84.52
2023-03-21T21:13:23.794Z,84.52
2023-03-21T21:15:55.656Z,83.93
2023-03-21T21:18:29.144Z,83.84
2023-03-21T21:20:58.808Z,83.46
2023-03-21T21:23:29.421Z,82.45
2023-03-21T21:25:58.099Z,82.20
2023-03-21T21:28:29.017Z,81.87
2023-03-21T21:31:01.012Z,81.74
2023-03-21T21:33:30.334Z,81.59
2023-03-21T21:36:03.809Z,81.63
2023-03-21T21:38:34.802Z,81.22
2023-03-21T21:41:03.060Z,80.80
2023-03-21T21:43:32.322Z,80.59
2023-03-21T21:46:00.569Z,80.60
2023-03-21T21:48:30.492Z,80.40
2023-03-21T21:50:59.198Z,80.28
2023-03-21T21:53:28.420Z,79.82
2023-03-21T21:55:56.441Z,79.43
2023-03-21T21:58:26.038Z,79.85
2023-03-21T22:00:54.454Z,79.86
2023-03-21T22:03:23.326Z,80.18
2023-03-21T22:05:52.481Z,80.26
2023-03-21T22:08:21.382Z,79.89
2023-03-21T22:10:50.670Z,79.95
2023-03-21T22:13:18.851Z,80.00
2023-03-21T22:15:47.123Z,79.72
2023-03-21T22:18:15.759Z,79.82
2023-03-21T22:20:44.152Z,79.97
2023-03-21T22:23:12.206Z,80.08
2023-03-21T22:25:40.702Z,79.83
2023-03-21T22:28:08.712Z,80.16
2023-03-21T22:30:37.858Z,80.40
2023-03-21T22:35:11.706Z,81.22
2023-03-21T22:37:40.893Z,80.77
2023-03-21T22:40:10.218Z,80.80
2023-03-21T22:42:39.740Z,80.97
2023-03-21T22:45:08.385Z,81.31
2023-03-21T22:47:35.891Z,82.04
2023-03-21T22:50:03.993Z,82.22
2023-03-21T22:52:31.011Z,82.05
2023-03-21T22:54:57.853Z,81.54
2023-03-21T22:57:24.794Z,81.12
2023-03-21T22:59:51.735Z,81.06
2023-03-21T23:02:18.506Z,81.25
2023-03-21T23:04:45.160Z,81.36
2023-03-21T23:07:11.932Z,81.78
2023-03-21T23:09:40.026Z,81.66
2023-03-21T23:12:06.907Z,81.61
2023-03-21T23:14:36.069Z,82.02
2023-03-21T23:17:03.451Z,82.04
2023-03-21T23:19:31.613Z,82.25
2023-03-21T23:21:58.586Z,82.61
2023-03-21T23:24:26.664Z,82.61
2023-03-21T23:26:53.268Z,82.75
2023-03-21T23:29:21.078Z,82.64
2023-03-21T23:31:48.296Z,83.04
2023-03-21T23:34:15.172Z,83.21
2023-03-21T23:36:42.713Z,83.17
2023-03-21T23:39:09.379Z,82.92
2023-03-21T23:41:36.108Z,82.56
2023-03-21T23:44:02.671Z,82.86
2023-03-21T23:46:34.043Z,83.02
2023-03-21T23:49:01.675Z,83.22
2023-03-21T23:51:28.477Z,82.94
2023-03-21T23:53:55.977Z,82.77
2023-03-21T23:56:24.119Z,82.48
2023-03-21T23:58:56.464Z,82.40
